Time;durP1;ratioP1;P1;durP2;ratioP2;P2;SDS_P1;SDS_P2;PMS_P1;PMS_P2;Temp;Humidity;BMP_temperature;BMP_pressure;BME280_temperature;BME280_humidity;BME280_pressure;Samples;Min_cycle;Max_cycle;Signal;HPM_P1;HPM_P2
2022/12/02 00:02:31;;;;;;;58.97;39.20;;;3.40;99.90;;;;;;5089625;28;20224;-77
2022/12/02 00:05:31;;;;;;;59.05;40.05;;;3.40;99.90;;;;;;5087310;28;20078;-77
2022/12/02 00:07:59;;;;;;;59.35;39.72;;;3.40;99.90;;;;;;5099182;28;20044;-77
2022/12/02 00:10:30;;;;;;;58.03;38.20;;;3.40;99.90;;;;;;5075948;28;20090;-77
2022/12/02 00:13:14;;;;;;;62.67;41.03;;;3.40;99.90;;;;;;5093814;28;20716;-77
2022/12/02 00:15:43;;;;;;;60.23;39.53;;;3.40;99.90;;;;;;5080430;28;20047;-77
2022/12/02 00:18:16;;;;;;;61.20;40.90;;;3.30;99.90;;;;;;5093960;28;20043;-77
2022/12/02 00:20:43;;;;;;;63.97;41.67;;;3.40;99.90;;;;;;5088193;28;20480;-77
2022/12/02 00:23:09;;;;;;;61.03;39.60;;;3.40;99.90;;;;;;5099346;28;20067;-77
2022/12/02 00:25:35;;;;;;;58.73;41.00;;;3.40;99.90;;;;;;5061026;28;20051;-77
2022/12/02 00:28:01;;;;;;;61.03;39.23;;;3.40;99.90;;;;;;5092421;27;20516;-77
2022/12/02 00:30:27;;;;;;;63.17;41.40;;;3.40;99.90;;;;;;5082154;28;20052;-77
2022/12/02 00:32:53;;;;;;;61.77;39.93;;;3.40;99.90;;;;;;5113682;27;20432;-77
2022/12/02 00:35:19;;;;;;;63.43;40.50;;;3.40;99.90;;;;;;5096520;28;20047;-77
2022/12/02 00:37:45;;;;;;;59.77;40.07;;;3.40;99.90;;;;;;5086476;28;20417;-77
2022/12/02 00:40:11;;;;;;;63.43;41.00;;;3.40;99.90;;;;;;5079466;28;20061;-77
2022/12/02 00:42:37;;;;;;;59.07;39.67;;;3.40;99.90;;;;;;5075636;28;20119;-77
2022/12/02 00:47:48;;;;;;;61.25;41.10;;;3.40;99.90;;;;;;5073668;28;20632;-77
2022/12/02 00:50:14;;;;;;;59.03;39.20;;;3.40;99.90;;;;;;5054215;28;20051;-78
2022/12/02 00:52:40;;;;;;;62.20;42.07;;;3.40;99.90;;;;;;5085794;28;20441;-77
2022/12/02 00:55:06;;;;;;;61.53;40.57;;;3.40;99.90;;;;;;5085564;28;20466;-77
2022/12/02 00:57:33;;;;;;;62.47;43.73;;;3.40;99.90;;;;;;5101732;28;20162;-77
2022/12/02 01:00:05;;;;;;;56.28;39.58;;;3.40;99.90;;;;;;5088242;28;20064;-77
2022/12/02 01:02:31;;;;;;;61.20;40.90;;;3.40;99.90;;;;;;5050459;28;20040;-78
2022/12/02 01:04:57;;;;;;;57.90;41.00;;;3.40;99.90;;;;;;5083062;28;20114;-77
2022/12/02 01:07:23;;;;;;;59.78;40.90;;;3.40;99.90;;;;;;5070606;28;20130;-78
2022/12/02 01:09:49;;;;;;;60.13;40.80;;;3.40;99.90;;;;;;5097401;28;20560;-77
2022/12/02 01:12:15;;;;;;;58.13;40.23;;;3.40;99.90;;;;;;5090983;28;20445;-77
2022/12/02 01:14:41;;;;;;;57.50;39.72;;;3.30;99.90;;;;;;5092997;28;20126;-77
2022/12/02 01:17:07;;;;;;;56.90;39.03;;;3.40;99.90;;;;;;5098868;28;20177;-77
2022/12/02 01:19:32;;;;;;;55.00;38.67;;;3.40;99.90;;;;;;5085108;28;20486;-77
2022/12/02 01:22:01;;;;;;;56.55;39.45;;;3.30;99.90;;;;;;5095757;28;20505;-77
2022/12/02 01:24:26;;;;;;;56.40;37.55;;;3.30;99.90;;;;;;5077471;28;20560;-78
2022/12/02 01:26:52;;;;;;;56.03;39.17;;;3.40;99.90;;;;;;5082684;28;20032;-77
2022/12/02 01:29:18;;;;;;;56.50;39.97;;;3.30;99.90;;;;;;5100899;28;20580;-78
2022/12/02 01:31:44;;;;;;;54.47;38.47;;;3.30;99.90;;;;;;5079694;28;20040;-77
2022/12/02 01:34:09;;;;;;;52.97;36.10;;;3.40;99.90;;;;;;5100541;28;20046;-77
2022/12/02 01:36:35;;;;;;;52.80;36.07;;;3.30;99.90;;;;;;5098454;28;20134;-77
2022/12/02 01:39:01;;;;;;;54.03;37.30;;;3.30;99.90;;;;;;5062008;28;20061;-77
2022/12/02 01:41:27;;;;;;;49.90;34.73;;;3.30;99.90;;;;;;5080102;28;20040;-78
2022/12/02 01:43:53;;;;;;;51.13;34.90;;;3.30;99.90;;;;;;5078892;28;20036;-77
2022/12/02 01:46:18;;;;;;;49.63;34.07;;;3.30;99.90;;;;;;5099689;28;20043;-77
2022/12/02 01:48:44;;;;;;;50.58;34.45;;;3.40;99.90;;;;;;5081640;28;20042;-77
2022/12/02 01:51:10;;;;;;;49.53;34.63;;;3.30;99.90;;;;;;5073746;28;20095;-72
2022/12/02 01:53:36;;;;;;;46.50;32.63;;;3.30;99.90;;;;;;5070641;28;20040;-72
2022/12/02 01:56:02;;;;;;;42.17;29.70;;;3.30;99.90;;;;;;5077754;28;20092;-71
2022/12/02 01:58:30;;;;;;;42.13;27.77;;;3.30;99.90;;;;;;5095281;28;20090;-72
2022/12/02 02:01:28;;;;;;;39.77;26.63;;;3.30;99.90;;;;;;5093864;28;20941;-77
2022/12/02 02:03:55;;;;;;;30.17;23.23;;;3.20;99.90;;;;;;5097590;28;20031;-72
2022/12/02 02:06:25;;;;;;;28.60;21.93;;;3.30;99.90;;;;;;5078217;28;20047;-71
2022/12/02 02:08:52;;;;;;;30.20;21.87;;;3.20;99.90;;;;;;5097248;28;20603;-72
2022/12/02 02:11:18;;;;;;;27.80;20.83;;;3.20;99.90;;;;;;5051846;28;20086;-71
2022/12/02 02:13:44;;;;;;;29.40;21.17;;;3.20;99.90;;;;;;5089962;28;20047;-70
2022/12/02 02:16:13;;;;;;;27.80;20.23;;;3.20;99.90;;;;;;5071449;28;20167;-70
2022/12/02 02:18:39;;;;;;;26.90;19.43;;;3.20;99.90;;;;;;5084096;28;20079;-70
2022/12/02 02:21:09;;;;;;;25.43;19.63;;;3.10;99.90;;;;;;5054183;28;20127;-76
2022/12/02 02:23:35;;;;;;;25.48;19.60;;;3.10;99.90;;;;;;5084877;28;20089;-76
2022/12/02 02:26:02;;;;;;;27.27;19.17;;;3.20;99.90;;;;;;5086066;28;20039;-78
2022/12/02 02:28:32;;;;;;;25.90;18.83;;;3.10;99.90;;;;;;5067879;28;20130;-77
2022/12/02 02:30:58;;;;;;;29.17;19.40;;;3.10;99.90;;;;;;5072633;28;20073;-76
2022/12/02 02:33:28;;;;;;;27.30;20.37;;;3.10;99.90;;;;;;5070449;28;20607;-76
2022/12/02 02:35:54;;;;;;;27.17;19.77;;;3.10;99.90;;;;;;5087119;28;20123;-70
2022/12/02 02:38:23;;;;;;;26.83;20.27;;;3.20;99.90;;;;;;5055925;28;20062;-70
2022/12/02 02:40:51;;;;;;;30.10;22.80;;;3.20;99.90;;;;;;5093087;27;20612;-70
2022/12/02 02:43:21;;;;;;;30.87;22.20;;;3.20;99.90;;;;;;5062143;28;20255;-70
2022/12/02 02:45:48;;;;;;;32.13;23.90;;;3.10;99.90;;;;;;5069421;28;20443;-70
2022/12/02 02:48:16;;;;;;;31.97;23.37;;;3.10;99.90;;;;;;5086747;28;20152;-70
2022/12/02 02:50:44;;;;;;;32.30;23.90;;;3.10;99.90;;;;;;5069271;28;20031;-70
2022/12/02 02:53:13;;;;;;;32.43;24.33;;;3.00;99.90;;;;;;5086021;28;20042;-70
2022/12/02 02:55:38;;;;;;;30.27;24.40;;;3.00;99.90;;;;;;5070014;28;20108;-71
2022/12/02 02:58:08;;;;;;;34.83;24.60;;;3.00;99.90;;;;;;5072926;28;20705;-71
2022/12/02 03:00:33;;;;;;;34.07;24.40;;;2.90;99.90;;;;;;5071636;28;20078;-71
2022/12/02 03:02:59;;;;;;;30.73;24.27;;;2.90;99.90;;;;;;5059057;28;20563;-71
2022/12/02 03:05:25;;;;;;;32.47;24.07;;;2.90;99.90;;;;;;5090234;28;20052;-71
2022/12/02 03:07:51;;;;;;;31.73;23.17;;;2.90;99.90;;;;;;5075146;28;20040;-72
2022/12/02 03:10:18;;;;;;;32.70;23.57;;;2.90;99.90;;;;;;5087957;28;20050;-77
2022/12/02 03:12:52;;;;;;;32.03;23.93;;;2.80;99.90;;;;;;5092156;28;20043;-77
2022/12/02 03:15:20;;;;;;;31.30;23.97;;;2.90;99.90;;;;;;5092519;28;20048;-77
2022/12/02 03:17:46;;;;;;;30.50;22.03;;;2.90;99.90;;;;;;5074754;28;20047;-77
2022/12/02 03:20:12;;;;;;;29.53;22.57;;;2.90;99.90;;;;;;5053567;28;20730;-77
2022/12/02 03:22:38;;;;;;;31.47;23.40;;;2.80;99.90;;;;;;5089685;28;20581;-77
2022/12/02 03:25:06;;;;;;;27.87;21.53;;;2.80;99.90;;;;;;5074448;28;20077;-77
2022/12/02 03:27:33;;;;;;;33.93;23.83;;;2.80;99.90;;;;;;5092142;28;20090;-71
2022/12/02 03:30:03;;;;;;;30.87;23.80;;;2.80;99.90;;;;;;5073919;28;20067;-71
2022/12/02 03:32:29;;;;;;;33.58;23.15;;;2.80;99.90;;;;;;5061145;28;21253;-71
2022/12/02 03:34:55;;;;;;;37.17;25.10;;;2.80;99.90;;;;;;5067606;28;20047;-71
2022/12/02 03:37:22;;;;;;;34.67;23.93;;;2.90;99.90;;;;;;5089614;28;20047;-71
2022/12/02 03:39:48;;;;;;;33.20;23.90;;;2.70;99.90;;;;;;5082435;28;20098;-71
2022/12/02 03:42:14;;;;;;;33.53;23.90;;;2.70;99.90;;;;;;5074271;28;20043;-72
2022/12/02 03:44:40;;;;;;;33.47;23.67;;;2.70;99.90;;;;;;5072878;28;20047;-71
2022/12/02 03:47:07;;;;;;;34.50;23.73;;;2.70;99.90;;;;;;5073102;28;20051;-71
2022/12/02 03:49:34;;;;;;;38.00;26.00;;;2.70;99.90;;;;;;5072236;28;20122;-71
2022/12/02 03:52:00;;;;;;;35.40;24.23;;;2.70;99.90;;;;;;5091979;28;20048;-71
2022/12/02 03:54:26;;;;;;;37.93;27.17;;;2.80;99.90;;;;;;5073581;27;20054;-77
2022/12/02 03:56:52;;;;;;;38.97;26.93;;;2.70;99.90;;;;;;5091456;28;20035;-77
2022/12/02 03:59:24;;;;;;;42.83;29.00;;;2.70;99.90;;;;;;5075829;28;20079;-77
2022/12/02 04:01:50;;;;;;;41.57;28.40;;;2.70;99.90;;;;;;5071713;28;20052;-77
2022/12/02 04:04:16;;;;;;;46.33;30.63;;;2.70;99.90;;;;;;5075251;28;20128;-77
2022/12/02 04:06:42;;;;;;;47.07;30.77;;;2.70;99.90;;;;;;5055927;28;20086;-77
2022/12/02 04:09:07;;;;;;;46.57;31.83;;;2.70;99.90;;;;;;5056616;28;20052;-77
2022/12/02 04:11:33;;;;;;;47.93;31.40;;;2.60;99.90;;;;;;5071186;28;20587;-77
2022/12/02 04:13:59;;;;;;;45.87;30.73;;;2.60;99.90;;;;;;5090738;28;21904;-78
2022/12/02 04:16:25;;;;;;;46.50;31.60;;;2.60;99.90;;;;;;5058087;28;20054;-77
2022/12/02 04:18:51;;;;;;;45.90;31.93;;;2.60;99.90;;;;;;5072552;28;20051;-77
2022/12/02 04:21:17;;;;;;;51.13;33.53;;;2.60;99.90;;;;;;5041876;28;20053;-76
2022/12/02 04:23:42;;;;;;;51.50;32.60;;;2.70;99.90;;;;;;5072428;28;20219;-77
2022/12/02 04:26:08;;;;;;;47.30;31.67;;;2.60;99.90;;;;;;5091008;28;20583;-77
2022/12/02 04:28:34;;;;;;;48.47;31.73;;;2.60;99.90;;;;;;5054391;28;20757;-77
2022/12/02 04:31:00;;;;;;;49.63;33.33;;;2.60;99.90;;;;;;5072578;28;20046;-77
2022/12/02 04:33:26;;;;;;;50.37;32.53;;;2.50;99.90;;;;;;5048805;28;20042;-77
2022/12/02 04:35:51;;;;;;;52.77;33.60;;;2.60;99.90;;;;;;5090795;28;20043;-77
2022/12/02 04:38:17;;;;;;;52.37;34.80;;;2.60;99.90;;;;;;5073072;28;20057;-77
2022/12/02 04:40:43;;;;;;;50.77;32.80;;;2.60;99.90;;;;;;5055583;28;20461;-77
2022/12/02 04:43:09;;;;;;;50.70;34.83;;;2.70;99.90;;;;;;5098499;27;20509;-77
2022/12/02 04:45:35;;;;;;;50.30;33.93;;;2.50;99.90;;;;;;5089669;28;20203;-77
2022/12/02 04:48:00;;;;;;;48.97;32.67;;;2.50;99.90;;;;;;5039656;28;20051;-77
2022/12/02 04:50:29;;;;;;;50.37;33.70;;;2.50;99.90;;;;;;5092017;28;20152;-77
2022/12/02 04:52:55;;;;;;;46.87;31.53;;;2.50;99.90;;;;;;5071896;28;21637;-77
2022/12/02 04:55:21;;;;;;;52.83;35.23;;;2.50;99.90;;;;;;5072120;28;20077;-77
2022/12/02 04:57:46;;;;;;;51.10;34.00;;;2.50;99.90;;;;;;5070519;28;20086;-76
2022/12/02 05:00:13;;;;;;;54.87;35.47;;;2.50;99.90;;;;;;5069866;28;20071;-77
2022/12/02 05:02:39;;;;;;;53.53;34.00;;;2.50;99.90;;;;;;5077837;28;20059;-77
2022/12/02 05:05:06;;;;;;;51.13;34.03;;;2.50;99.90;;;;;;5057341;28;20039;-77
2022/12/02 05:07:31;;;;;;;53.70;35.83;;;2.50;99.90;;;;;;5085905;28;20055;-77
2022/12/02 05:09:57;;;;;;;55.47;35.27;;;2.50;99.90;;;;;;5054557;28;20080;-76
2022/12/02 05:12:23;;;;;;;53.50;36.10;;;2.40;99.90;;;;;;5072783;28;20051;-77
2022/12/02 05:14:50;;;;;;;51.40;35.40;;;2.40;99.90;;;;;;5074680;28;20048;-77
2022/12/02 05:17:16;;;;;;;53.43;35.93;;;2.40;99.90;;;;;;5086858;28;20103;-77
2022/12/02 05:19:42;;;;;;;54.20;36.43;;;2.40;99.90;;;;;;5070713;28;20405;-76
2022/12/02 05:22:08;;;;;;;60.57;37.37;;;2.40;99.90;;;;;;5052993;28;20058;-76
2022/12/02 05:24:34;;;;;;;56.87;36.87;;;2.50;99.90;;;;;;5071001;28;20107;-76
2022/12/02 05:27:00;;;;;;;61.33;39.37;;;2.30;99.90;;;;;;5055617;28;20047;-76
2022/12/02 05:29:28;;;;;;;61.27;37.20;;;2.40;99.90;;;;;;5074629;28;20046;-76
2022/12/02 05:31:54;;;;;;;58.00;37.33;;;2.30;99.90;;;;;;5088606;28;20925;-76
2022/12/02 05:34:20;;;;;;;59.23;38.40;;;2.30;99.90;;;;;;5090554;28;20036;-76
2022/12/02 05:36:46;;;;;;;57.27;36.90;;;2.30;99.90;;;;;;5086211;28;20683;-76
2022/12/02 05:39:12;;;;;;;58.10;38.20;;;2.30;99.90;;;;;;5089209;28;20089;-70
2022/12/02 05:41:38;;;;;;;59.70;37.70;;;2.30;99.90;;;;;;5088662;28;20047;-69
2022/12/02 05:44:24;;;;;;;59.67;37.33;;;2.30;99.90;;;;;;5074250;28;20372;-71
2022/12/02 05:46:51;;;;;;;62.83;39.10;;;2.30;99.90;;;;;;5091642;28;20044;-70
2022/12/02 05:49:22;;;;;;;63.37;38.90;;;2.20;99.90;;;;;;5090682;28;20566;-71
2022/12/02 05:51:56;;;;;;;62.10;38.13;;;2.20;99.90;;;;;;5091464;27;20134;-70
2022/12/02 05:54:22;;;;;;;65.00;39.33;;;2.20;99.90;;;;;;5071732;28;20078;-70
2022/12/02 05:56:48;;;;;;;61.20;37.67;;;2.30;99.90;;;;;;5072699;28;20490;-70
2022/12/02 05:59:17;;;;;;;68.10;39.70;;;2.20;99.90;;;;;;5066873;28;20052;-76
2022/12/02 06:01:47;;;;;;;59.63;37.50;;;2.20;99.90;;;;;;5069764;28;20062;-76
2022/12/02 06:04:33;;;;;;;64.68;38.17;;;2.20;99.90;;;;;;5086775;28;20070;-77
2022/12/02 06:07:07;;;;;;;65.33;38.80;;;2.20;99.90;;;;;;5070113;28;20807;-70
2022/12/02 06:09:33;;;;;;;60.93;37.43;;;2.10;99.90;;;;;;5075697;28;20047;-70
2022/12/02 06:12:00;;;;;;;64.23;39.00;;;2.10;99.90;;;;;;5052904;28;20516;-70
2022/12/02 06:14:34;;;;;;;67.80;39.70;;;2.20;99.90;;;;;;5063819;28;20697;-70
2022/12/02 06:17:02;;;;;;;68.30;40.60;;;2.20;99.90;;;;;;5071100;28;20044;-70
2022/12/02 06:19:42;;;;;;;70.87;42.43;;;2.20;99.90;;;;;;5098473;27;20096;-71
2022/12/02 06:22:16;;;;;;;67.37;41.10;;;2.10;99.90;;;;;;5086628;28;20096;-77
2022/12/02 06:24:42;;;;;;;67.13;40.80;;;2.20;99.90;;;;;;5078127;28;20520;-76
2022/12/02 06:27:13;;;;;;;65.60;40.20;;;2.20;99.90;;;;;;5071480;28;20042;-77
2022/12/02 06:29:46;;;;;;;65.43;40.97;;;2.20;99.90;;;;;;5084692;28;20044;-76
2022/12/02 06:32:18;;;;;;;68.93;40.97;;;2.20;99.90;;;;;;5073777;28;20134;-77
2022/12/02 06:34:49;;;;;;;67.57;41.93;;;2.20;99.90;;;;;;5090819;28;20052;-77
2022/12/02 06:37:31;;;;;;;66.70;40.73;;;2.20;99.90;;;;;;5076042;28;20075;-77
2022/12/02 06:39:59;;;;;;;66.93;40.13;;;2.20;99.90;;;;;;5087546;28;20122;-77
2022/12/02 06:42:33;;;;;;;66.97;43.03;;;2.20;99.90;;;;;;5057596;28;20044;-77
2022/12/02 06:45:12;;;;;;;65.80;40.60;;;2.20;99.90;;;;;;5087857;28;20732;-77
2022/12/02 06:47:41;;;;;;;69.43;42.07;;;2.20;99.90;;;;;;5074639;28;20046;-77
2022/12/02 06:50:06;;;;;;;72.97;42.93;;;2.30;99.90;;;;;;5074373;28;20069;-77
2022/12/02 06:52:36;;;;;;;74.40;43.03;;;2.20;99.90;;;;;;5087410;28;20458;-77
2022/12/02 06:55:06;;;;;;;69.33;42.20;;;2.30;99.90;;;;;;5089887;27;20134;-77
2022/12/02 06:57:32;;;;;;;66.33;41.70;;;2.20;99.90;;;;;;5070786;28;20554;-77
2022/12/02 07:00:01;;;;;;;69.37;40.97;;;2.20;99.90;;;;;;5086913;28;20040;-76
2022/12/02 07:02:30;;;;;;;73.33;42.47;;;2.30;99.90;;;;;;5072814;28;20043;-76
2022/12/02 07:04:57;;;;;;;68.77;42.73;;;2.20;99.90;;;;;;5075864;28;20469;-76
2022/12/02 07:07:31;;;;;;;69.90;42.40;;;2.30;99.90;;;;;;5073343;28;20614;-77
2022/12/02 07:09:56;;;;;;;70.50;40.57;;;2.30;99.90;;;;;;5074252;28;20047;-77
2022/12/02 07:12:32;;;;;;;78.30;43.90;;;2.20;99.90;;;;;;5092652;28;20092;-77
2022/12/02 07:15:19;;;;;;;73.27;42.30;;;2.30;99.90;;;;;;5072356;28;20631;-77
2022/12/02 07:17:45;;;;;;;75.27;43.50;;;2.30;99.90;;;;;;5079159;28;20059;-77
2022/12/02 07:20:14;;;;;;;70.83;42.70;;;2.30;99.90;;;;;;5074349;28;20044;-77
2022/12/02 07:22:55;;;;;;;73.43;43.67;;;2.30;99.90;;;;;;5097906;27;20050;-77
2022/12/02 07:25:37;;;;;;;72.07;42.27;;;2.30;99.90;;;;;;5100712;27;20056;-77
2022/12/02 07:28:21;;;;;;;71.83;42.50;;;2.30;99.90;;;;;;5086665;28;20112;-77
2022/12/02 07:30:59;;;;;;;68.17;39.83;;;2.30;99.90;;;;;;5071613;28;20123;-77
2022/12/02 07:33:25;;;;;;;71.30;40.90;;;2.30;99.90;;;;;;5070502;28;20051;-77
2022/12/02 07:35:51;;;;;;;66.77;39.83;;;2.40;99.90;;;;;;5084656;28;20054;-77
2022/12/02 07:38:16;;;;;;;64.77;38.80;;;2.40;99.90;;;;;;5071764;28;20043;-77
2022/12/02 07:40:42;;;;;;;64.90;38.60;;;2.40;99.90;;;;;;5085407;28;20043;-78
2022/12/02 07:43:09;;;;;;;65.90;39.27;;;2.50;99.90;;;;;;5076082;28;20473;-77
2022/12/02 07:45:34;;;;;;;62.27;38.27;;;2.40;99.90;;;;;;5072612;28;20070;-76
2022/12/02 07:48:00;;;;;;;64.43;38.63;;;2.40;99.90;;;;;;5071298;28;20549;-75
2022/12/02 07:50:26;;;;;;;64.50;38.77;;;2.50;99.90;;;;;;5072045;28;20074;-76
2022/12/02 07:52:52;;;;;;;65.47;38.37;;;2.60;99.90;;;;;;5071943;28;20452;-75
2022/12/02 07:55:18;;;;;;;63.80;38.37;;;2.50;99.90;;;;;;5038770;28;20040;-76
2022/12/02 07:57:44;;;;;;;66.60;39.77;;;2.60;99.90;;;;;;5070079;28;20050;-76
2022/12/02 08:00:11;;;;;;;68.60;38.70;;;2.60;99.90;;;;;;5070927;28;20410;-76
2022/12/02 08:02:37;;;;;;;67.40;39.63;;;2.60;99.90;;;;;;5054045;28;20074;-76
2022/12/02 08:05:03;;;;;;;71.50;41.27;;;2.70;99.90;;;;;;5073227;28;20103;-76
2022/12/02 08:07:29;;;;;;;75.27;42.33;;;2.60;99.90;;;;;;5071315;28;20044;-76
2022/12/02 08:09:55;;;;;;;74.63;43.23;;;2.60;99.90;;;;;;5074048;28;20078;-76
2022/12/02 08:12:21;;;;;;;75.30;44.50;;;2.60;99.90;;;;;;5072519;28;20079;-76
2022/12/02 08:14:47;;;;;;;78.77;45.97;;;2.60;99.90;;;;;;5088980;28;20080;-77
2022/12/02 08:17:13;;;;;;;79.83;45.90;;;2.60;99.90;;;;;;5054646;28;20044;-77
2022/12/02 08:19:40;;;;;;;84.10;46.77;;;2.60;99.90;;;;;;5070251;28;20046;-77
2022/12/02 08:22:06;;;;;;;88.40;46.40;;;2.60;99.90;;;;;;5070395;28;20048;-77
2022/12/02 08:24:32;;;;;;;85.13;47.23;;;2.60;99.90;;;;;;5086040;28;20051;-78
2022/12/02 08:27:01;;;;;;;83.80;46.07;;;2.70;99.90;;;;;;5087886;28;20125;-77
2022/12/02 08:29:27;;;;;;;88.27;47.73;;;2.60;99.90;;;;;;5071951;28;20058;-78
2022/12/02 08:31:53;;;;;;;82.90;46.07;;;2.60;99.90;;;;;;5050968;28;20086;-78
2022/12/02 08:34:19;;;;;;;84.17;46.83;;;2.60;99.90;;;;;;5071565;28;20536;-78
2022/12/02 08:36:44;;;;;;;86.07;46.83;;;2.70;99.90;;;;;;5087459;28;20047;-78
2022/12/02 08:39:10;;;;;;;83.47;45.80;;;2.70;99.90;;;;;;5071444;28;20075;-78
2022/12/02 08:41:37;;;;;;;87.63;46.60;;;2.60;99.90;;;;;;5085327;28;20685;-78
2022/12/02 08:44:05;;;;;;;74.97;42.97;;;2.70;99.90;;;;;;5089093;28;20032;-78
2022/12/02 08:46:32;;;;;;;75.53;41.53;;;2.70;99.90;;;;;;5086897;28;20116;-78
2022/12/02 08:49:01;;;;;;;67.97;39.23;;;2.70;99.90;;;;;;5097010;27;20092;-78
2022/12/02 08:51:27;;;;;;;63.97;37.23;;;2.70;99.90;;;;;;5086406;28;20092;-78
2022/12/02 08:53:53;;;;;;;63.57;37.53;;;2.60;99.90;;;;;;5070641;28;20097;-78
2022/12/02 08:56:19;;;;;;;65.00;37.67;;;2.50;99.90;;;;;;5088382;28;20499;-78
2022/12/02 08:58:45;;;;;;;63.00;36.17;;;2.70;99.90;;;;;;5069833;28;20066;-77
2022/12/02 09:01:11;;;;;;;62.10;36.37;;;2.70;99.90;;;;;;5051441;28;20043;-78
2022/12/02 09:03:36;;;;;;;65.93;37.53;;;2.70;99.90;;;;;;5072404;28;20054;-77
2022/12/02 09:06:02;;;;;;;69.93;38.17;;;2.70;99.90;;;;;;5070296;28;20051;-78
2022/12/02 09:08:29;;;;;;;68.73;39.03;;;2.60;99.90;;;;;;5056495;28;20095;-78
2022/12/02 09:10:55;;;;;;;74.63;39.20;;;2.60;99.90;;;;;;5087834;28;20051;-78
2022/12/02 09:13:20;;;;;;;69.03;38.70;;;2.70;99.90;;;;;;5091063;28;20039;-78
2022/12/02 09:15:46;;;;;;;72.73;40.67;;;2.70;99.90;;;;;;5071214;28;20448;-78
2022/12/02 09:18:12;;;;;;;76.83;41.80;;;2.60;99.90;;;;;;5072376;28;20399;-78
2022/12/02 09:20:38;;;;;;;72.60;41.37;;;2.60;99.90;;;;;;5053632;28;20452;-77
2022/12/02 09:23:04;;;;;;;74.37;40.57;;;2.60;99.90;;;;;;5087132;28;20044;-77
2022/12/02 09:25:30;;;;;;;73.93;41.67;;;2.60;99.90;;;;;;5053435;28;20067;-77
2022/12/02 09:27:59;;;;;;;71.07;41.87;;;2.60;99.90;;;;;;5086373;28;20458;-77
2022/12/02 09:30:25;;;;;;;72.00;40.13;;;2.60;99.90;;;;;;5070381;28;20043;-78
2022/12/02 09:32:50;;;;;;;69.53;39.43;;;2.70;99.90;;;;;;5070680;28;20092;-78
2022/12/02 09:35:16;;;;;;;66.50;38.27;;;2.70;99.90;;;;;;5054730;28;20058;-71
2022/12/02 09:37:42;;;;;;;69.87;39.37;;;2.80;99.90;;;;;;5088065;28;20130;-71
2022/12/02 09:40:09;;;;;;;68.00;38.83;;;2.80;99.90;;;;;;5086468;28;20098;-71
2022/12/02 09:42:34;;;;;;;67.47;38.83;;;2.80;99.90;;;;;;5069635;28;20039;-71
2022/12/02 09:45:02;;;;;;;67.87;39.57;;;2.80;99.90;;;;;;5087205;28;20124;-71
2022/12/02 09:47:29;;;;;;;70.03;39.80;;;2.90;99.90;;;;;;5084883;28;20173;-71
2022/12/02 09:49:55;;;;;;;70.00;39.30;;;3.00;99.90;;;;;;5070098;28;20051;-70
2022/12/02 09:52:25;;;;;;;76.97;40.93;;;2.90;99.90;;;;;;5068809;28;20058;-71
2022/12/02 09:55:00;;;;;;;71.78;38.78;;;2.90;99.90;;;;;;5077168;28;20048;-70
2022/12/02 09:57:32;;;;;;;71.57;39.47;;;2.90;99.90;;;;;;5094082;27;20136;-71
2022/12/02 10:00:00;;;;;;;69.73;38.57;;;2.90;99.90;;;;;;5067377;28;20522;-71
2022/12/02 10:02:43;;;;;;;72.93;39.77;;;2.90;99.90;;;;;;5084548;28;20047;-71
2022/12/02 10:05:14;;;;;;;72.73;39.90;;;2.90;99.90;;;;;;5087265;28;20047;-78
2022/12/02 10:07:40;;;;;;;77.40;40.23;;;2.80;99.90;;;;;;5064692;28;20513;-78
2022/12/02 10:10:15;;;;;;;72.43;40.33;;;2.80;99.90;;;;;;5063795;28;20047;-78
2022/12/02 10:12:41;;;;;;;79.23;42.50;;;2.70;99.90;;;;;;5071041;28;20042;-78
2022/12/02 10:15:13;;;;;;;84.30;44.10;;;2.80;99.90;;;;;;5070840;28;20063;-78
2022/12/02 10:17:41;;;;;;;83.67;43.77;;;2.80;99.90;;;;;;5086309;28;20058;-78
2022/12/02 10:20:13;;;;;;;87.87;44.77;;;2.80;99.90;;;;;;5049967;28;20268;-77
2022/12/02 10:23:08;;;;;;;84.37;44.03;;;2.80;99.90;;;;;;5086782;28;20047;-78
2022/12/02 10:25:34;;;;;;;86.30;44.50;;;2.80;99.90;;;;;;5071247;28;20086;-78
2022/12/02 10:28:01;;;;;;;79.53;41.83;;;2.70;99.90;;;;;;5083017;28;20043;-78
2022/12/02 10:30:27;;;;;;;70.67;41.67;;;2.80;99.90;;;;;;5068454;28;20047;-77
2022/12/02 10:33:02;;;;;;;70.77;39.27;;;2.80;99.90;;;;;;5068559;28;20051;-78
2022/12/02 10:35:45;;;;;;;68.93;39.73;;;2.80;99.90;;;;;;5071719;28;20048;-78
2022/12/02 10:38:36;;;;;;;66.10;38.80;;;2.80;99.90;;;;;;5084246;28;20559;-78
2022/12/02 10:41:15;;;;;;;66.27;39.07;;;2.80;99.90;;;;;;5069618;28;20036;-78
2022/12/02 10:43:51;;;;;;;65.20;38.10;;;2.80;99.90;;;;;;5087522;28;20055;-77
2022/12/02 10:46:19;;;;;;;61.43;37.07;;;2.80;99.90;;;;;;5072875;28;20047;-78
2022/12/02 10:48:45;;;;;;;60.53;36.47;;;2.80;99.90;;;;;;5085748;28;20269;-77
2022/12/02 10:51:19;;;;;;;59.88;35.10;;;2.90;99.90;;;;;;5086763;28;20047;-78
2022/12/02 10:53:48;;;;;;;58.70;36.17;;;2.90;99.90;;;;;;5087138;28;20058;-77
2022/12/02 10:56:23;;;;;;;58.77;35.03;;;2.80;99.90;;;;;;5069947;28;20113;-77
2022/12/02 10:58:50;;;;;;;59.63;36.77;;;2.90;99.90;;;;;;5068944;28;20933;-77
2022/12/02 11:01:19;;;;;;;58.83;35.73;;;2.90;99.90;;;;;;5087454;28;20510;-78
2022/12/02 11:03:46;;;;;;;59.97;35.83;;;2.90;99.90;;;;;;5069871;28;20054;-77
2022/12/02 11:06:14;;;;;;;61.50;37.43;;;2.90;99.90;;;;;;5078679;28;20429;-77
2022/12/02 11:08:41;;;;;;;62.47;37.47;;;2.80;99.90;;;;;;5082230;28;20047;-77
2022/12/02 11:11:33;;;;;;;65.87;40.00;;;2.80;99.90;;;;;;5084299;28;20199;-78
2022/12/02 11:14:04;;;;;;;61.57;39.37;;;2.90;99.90;;;;;;5070831;28;20086;-77
2022/12/02 11:16:36;;;;;;;62.70;40.07;;;2.80;99.90;;;;;;5084826;28;20048;-78
2022/12/02 11:19:07;;;;;;;66.45;40.58;;;2.80;99.90;;;;;;5088820;28;20066;-78
2022/12/02 11:21:44;;;;;;;69.03;41.80;;;2.80;99.90;;;;;;5072956;28;20056;-78
2022/12/02 11:24:22;;;;;;;67.87;41.40;;;2.80;99.90;;;;;;5091127;28;20506;-78
2022/12/02 11:27:01;;;;;;;68.47;42.03;;;2.90;99.90;;;;;;5089665;28;20327;-78
2022/12/02 11:29:37;;;;;;;73.80;42.50;;;2.90;99.90;;;;;;5087946;28;20575;-78
2022/12/02 11:32:17;;;;;;;76.93;46.00;;;2.80;99.90;;;;;;5089457;28;20514;-78
2022/12/02 11:34:53;;;;;;;79.20;46.63;;;2.80;99.90;;;;;;5072991;28;20113;-71
2022/12/02 11:37:37;;;;;;;76.70;46.50;;;2.90;99.90;;;;;;5089322;28;20334;-71
2022/12/02 11:40:12;;;;;;;81.77;49.23;;;2.80;99.90;;;;;;5069846;28;20036;-71
2022/12/02 11:42:39;;;;;;;81.67;50.13;;;2.80;99.90;;;;;;5097956;27;20047;-71
2022/12/02 11:45:18;;;;;;;81.30;48.83;;;2.80;99.90;;;;;;5086384;28;20058;-71
2022/12/02 11:47:55;;;;;;;86.40;50.07;;;2.80;99.90;;;;;;5075652;27;20305;-71
2022/12/02 11:50:28;;;;;;;81.77;50.63;;;2.70;99.90;;;;;;5077975;28;20343;-77
2022/12/02 11:53:09;;;;;;;87.17;51.77;;;2.70;99.90;;;;;;5073629;28;20421;-78
2022/12/02 11:55:40;;;;;;;87.03;52.17;;;2.70;99.90;;;;;;5087481;28;20055;-77
2022/12/02 11:58:31;;;;;;;86.63;54.03;;;2.70;99.90;;;;;;5089696;28;21090;-78
2022/12/02 12:01:04;;;;;;;;;;;2.70;99.90;;;;;;5087259;28;20082;-79
2022/12/02 12:03:31;;;;;;;85.53;53.63;;;2.70;99.90;;;;;;5073144;28;20026;-78
2022/12/02 12:06:11;;;;;;;88.73;53.17;;;2.70;99.90;;;;;;5088817;28;20054;-78
2022/12/02 12:08:55;;;;;;;88.00;53.50;;;2.70;99.90;;;;;;5073051;28;20052;-71
2022/12/02 12:11:34;;;;;;;86.23;53.67;;;2.60;99.90;;;;;;5079285;28;20050;-71
2022/12/02 12:14:12;;;;;;;84.77;54.07;;;2.70;99.90;;;;;;5091155;27;20059;-72
2022/12/02 12:16:42;;;;;;;83.80;53.00;;;2.60;99.90;;;;;;5087401;28;20051;-72
2022/12/02 12:19:11;;;;;;;86.27;54.13;;;2.70;99.90;;;;;;5082044;28;20066;-71
2022/12/02 12:21:46;;;;;;;87.10;52.77;;;2.70;99.90;;;;;;5072359;28;20161;-71
2022/12/02 12:24:18;;;;;;;83.57;52.40;;;2.70;99.90;;;;;;5088928;28;20501;-71
2022/12/02 12:26:51;;;;;;;82.50;51.63;;;2.70;99.90;;;;;;5071284;28;20048;-72
2022/12/02 12:29:19;;;;;;;82.90;52.47;;;2.70;99.90;;;;;;5085444;28;20036;-71
2022/12/02 12:31:44;;;;;;;81.97;52.77;;;2.70;99.90;;;;;;5087840;28;20058;-72
2022/12/02 12:34:10;;;;;;;80.20;50.83;;;2.80;99.90;;;;;;5090124;28;20039;-71
2022/12/02 12:36:37;;;;;;;79.47;52.57;;;2.70;99.90;;;;;;5069216;28;20545;-71
2022/12/02 12:39:04;;;;;;;77.00;51.13;;;2.70;99.90;;;;;;5088302;28;20035;-72
2022/12/02 12:41:31;;;;;;;77.83;50.17;;;2.70;99.90;;;;;;5070574;28;20039;-71
2022/12/02 12:43:57;;;;;;;74.83;49.53;;;2.70;99.90;;;;;;5071623;28;20039;-70
2022/12/02 12:46:22;;;;;;;75.57;49.63;;;2.70;99.90;;;;;;5070337;28;20411;-76
2022/12/02 12:48:48;;;;;;;78.33;52.20;;;2.70;99.90;;;;;;5088509;28;20433;-76
2022/12/02 12:51:15;;;;;;;81.33;51.07;;;2.70;99.90;;;;;;5087857;28;20112;-77